sensor_id;sensor_type;location;lat;lon;timestamp;temperature;humidity
62339;DHT22;48368;53.406;6.214;2023-01-30T00:01:52;6.50;99.90
62339;DHT22;48368;53.406;6.214;2023-01-30T00:04:17;6.40;99.90
62339;DHT22;48368;53.406;6.214;2023-01-30T00:06:43;6.60;99.90
62339;DHT22;48368;53.406;6.214;2023-01-30T00:09:11;6.50;99.90
62339;DHT22;48368;53.406;6.214;2023-01-30T00:11:38;6.50;99.90
62339;DHT22;48368;53.406;6.214;2023-01-30T00:14:03;6.50;99.90
62339;DHT22;48368;53.406;6.214;2023-01-30T00:16:29;6.50;99.90
62339;DHT22;48368;53.406;6.214;2023-01-30T00:18:54;6.40;99.90
62339;DHT22;48368;53.406;6.214;2023-01-30T00:21:29;6.40;99.90
62339;DHT22;48368;53.406;6.214;2023-01-30T00:23:55;6.40;99.90
62339;DHT22;48368;53.406;6.214;2023-01-30T00:26:21;6.40;99.90
62339;DHT22;48368;53.406;6.214;2023-01-30T00:28:46;6.30;99.90
62339;DHT22;48368;53.406;6.214;2023-01-30T00:31:12;6.40;99.90
62339;DHT22;48368;53.406;6.214;2023-01-30T00:33:38;6.40;99.90
62339;DHT22;48368;53.406;6.214;2023-01-30T00:36:04;6.30;99.90
62339;DHT22;48368;53.406;6.214;2023-01-30T00:38:30;6.30;99.90
62339;DHT22;48368;53.406;6.214;2023-01-30T00:40:55;6.40;99.90
62339;DHT22;48368;53.406;6.214;2023-01-30T00:43:21;6.20;99.90
62339;DHT22;48368;53.406;6.214;2023-01-30T00:46:15;6.30;99.90
62339;DHT22;48368;53.406;6.214;2023-01-30T00:49:17;6.30;99.90
62339;DHT22;48368;53.406;6.214;2023-01-30T00:51:43;6.20;99.90
62339;DHT22;48368;53.406;6.214;2023-01-30T00:54:15;6.20;99.90
62339;DHT22;48368;53.406;6.214;2023-01-30T00:56:41;6.40;99.90
62339;DHT22;48368;53.406;6.214;2023-01-30T00:59:06;6.30;99.90
62339;DHT22;48368;53.406;6.214;2023-01-30T01:01:32;6.30;99.90
62339;DHT22;48368;53.406;6.214;2023-01-30T01:03:58;6.30;99.90
62339;DHT22;48368;53.406;6.214;2023-01-30T01:06:23;6.40;99.90
62339;DHT22;48368;53.406;6.214;2023-01-30T01:08:49;6.40;99.90
62339;DHT22;48368;53.406;6.214;2023-01-30T01:11:17;6.40;99.90
62339;DHT22;48368;53.406;6.214;2023-01-30T01:13:55;6.30;99.90
62339;DHT22;48368;53.406;6.214;2023-01-30T01:16:22;6.40;99.90
62339;DHT22;48368;53.406;6.214;2023-01-30T01:18:48;6.20;99.90
62339;DHT22;48368;53.406;6.214;2023-01-30T01:21:14;6.40;99.90
62339;DHT22;48368;53.406;6.214;2023-01-30T01:23:40;6.40;99.90
62339;DHT22;48368;53.406;6.214;2023-01-30T01:26:06;6.30;99.90
62339;DHT22;48368;53.406;6.214;2023-01-30T01:28:31;6.20;99.90
62339;DHT22;48368;53.406;6.214;2023-01-30T01:30:57;6.40;99.90
62339;DHT22;48368;53.406;6.214;2023-01-30T01:33:26;6.40;99.90
62339;DHT22;48368;53.406;6.214;2023-01-30T01:35:56;6.30;99.90
62339;DHT22;48368;53.406;6.214;2023-01-30T01:38:22;6.30;99.90
62339;DHT22;48368;53.406;6.214;2023-01-30T01:40:47;6.40;99.90
62339;DHT22;48368;53.406;6.214;2023-01-30T01:43:36;6.30;99.90
62339;DHT22;48368;53.406;6.214;2023-01-30T01:46:12;6.40;99.90
62339;DHT22;48368;53.406;6.214;2023-01-30T01:48:52;6.40;99.90
62339;DHT22;48368;53.406;6.214;2023-01-30T01:54:02;6.40;99.90
62339;DHT22;48368;53.406;6.214;2023-01-30T01:56:31;6.30;99.90
62339;DHT22;48368;53.406;6.214;2023-01-30T01:59:20;6.40;99.90
62339;DHT22;48368;53.406;6.214;2023-01-30T02:01:48;6.50;99.90
62339;DHT22;48368;53.406;6.214;2023-01-30T02:04:15;6.50;99.90
62339;DHT22;48368;53.406;6.214;2023-01-30T02:07:01;6.50;99.90
62339;DHT22;48368;53.406;6.214;2023-01-30T02:09:27;6.50;99.90
62339;DHT22;48368;53.406;6.214;2023-01-30T02:11:56;6.60;99.90
62339;DHT22;48368;53.406;6.214;2023-01-30T02:14:31;6.70;99.90
62339;DHT22;48368;53.406;6.214;2023-01-30T02:16:57;6.70;99.90
62339;DHT22;48368;53.406;6.214;2023-01-30T02:19:47;6.70;99.90
62339;DHT22;48368;53.406;6.214;2023-01-30T02:27:49;6.60;99.90
62339;DHT22;48368;53.406;6.214;2023-01-30T02:33:39;6.80;99.90
62339;DHT22;48368;53.406;6.214;2023-01-30T02:38:53;6.70;99.90
62339;DHT22;48368;53.406;6.214;2023-01-30T02:41:40;6.70;99.90
62339;DHT22;48368;53.406;6.214;2023-01-30T02:47:13;6.60;99.90
62339;DHT22;48368;53.406;6.214;2023-01-30T02:49:46;6.60;99.90
62339;DHT22;48368;53.406;6.214;2023-01-30T02:52:13;6.70;99.90
62339;DHT22;48368;53.406;6.214;2023-01-30T02:54:39;6.80;99.90
62339;DHT22;48368;53.406;6.214;2023-01-30T02:57:18;6.70;99.90
62339;DHT22;48368;53.406;6.214;2023-01-30T02:59:48;6.70;99.90
62339;DHT22;48368;53.406;6.214;2023-01-30T03:08:24;6.80;99.90
62339;DHT22;48368;53.406;6.214;2023-01-30T03:11:03;6.80;99.90
62339;DHT22;48368;53.406;6.214;2023-01-30T03:13:51;6.80;99.90
62339;DHT22;48368;53.406;6.214;2023-01-30T03:16:25;6.70;99.90
62339;DHT22;48368;53.406;6.214;2023-01-30T03:18:52;6.80;99.90
62339;DHT22;48368;53.406;6.214;2023-01-30T03:21:18;6.70;99.90
62339;DHT22;48368;53.406;6.214;2023-01-30T03:23:45;6.70;99.90
62339;DHT22;48368;53.406;6.214;2023-01-30T03:26:17;6.70;99.90
62339;DHT22;48368;53.406;6.214;2023-01-30T03:28:45;6.80;99.90
62339;DHT22;48368;53.406;6.214;2023-01-30T03:31:12;6.80;99.90
62339;DHT22;48368;53.406;6.214;2023-01-30T03:33:41;6.70;99.90
62339;DHT22;48368;53.406;6.214;2023-01-30T03:36:07;6.70;99.90
62339;DHT22;48368;53.406;6.214;2023-01-30T03:38:34;6.70;99.90
62339;DHT22;48368;53.406;6.214;2023-01-30T03:41:00;6.60;99.90
62339;DHT22;48368;53.406;6.214;2023-01-30T03:43:26;6.50;99.90
62339;DHT22;48368;53.406;6.214;2023-01-30T03:45:51;6.60;99.90
62339;DHT22;48368;53.406;6.214;2023-01-30T03:48:17;6.60;99.90
62339;DHT22;48368;53.406;6.214;2023-01-30T03:50:43;6.60;99.90
62339;DHT22;48368;53.406;6.214;2023-01-30T03:53:08;6.50;99.90
62339;DHT22;48368;53.406;6.214;2023-01-30T03:55:34;6.60;99.90
62339;DHT22;48368;53.406;6.214;2023-01-30T03:57:59;6.60;99.90
62339;DHT22;48368;53.406;6.214;2023-01-30T04:00:25;6.60;99.90
62339;DHT22;48368;53.406;6.214;2023-01-30T04:02:51;6.50;99.90
62339;DHT22;48368;53.406;6.214;2023-01-30T04:05:18;6.50;99.90
62339;DHT22;48368;53.406;6.214;2023-01-30T04:07:43;6.50;99.90
62339;DHT22;48368;53.406;6.214;2023-01-30T04:10:09;6.40;99.90
62339;DHT22;48368;53.406;6.214;2023-01-30T04:12:35;6.50;99.90
62339;DHT22;48368;53.406;6.214;2023-01-30T04:15:01;6.50;99.90
62339;DHT22;48368;53.406;6.214;2023-01-30T04:17:26;6.50;99.90
62339;DHT22;48368;53.406;6.214;2023-01-30T04:19:52;6.50;99.90
62339;DHT22;48368;53.406;6.214;2023-01-30T04:22:17;6.50;99.90
62339;DHT22;48368;53.406;6.214;2023-01-30T04:24:43;6.50;99.90
62339;DHT22;48368;53.406;6.214;2023-01-30T04:27:11;6.50;99.90
62339;DHT22;48368;53.406;6.214;2023-01-30T04:29:37;6.40;99.90
62339;DHT22;48368;53.406;6.214;2023-01-30T04:32:02;6.40;99.90
62339;DHT22;48368;53.406;6.214;2023-01-30T04:34:28;6.40;99.90
62339;DHT22;48368;53.406;6.214;2023-01-30T04:36:54;6.30;99.90
62339;DHT22;48368;53.406;6.214;2023-01-30T04:39:19;6.40;99.90
62339;DHT22;48368;53.406;6.214;2023-01-30T04:41:45;6.40;99.90
62339;DHT22;48368;53.406;6.214;2023-01-30T04:44:10;6.40;99.90
62339;DHT22;48368;53.406;6.214;2023-01-30T04:46:36;6.50;99.90
62339;DHT22;48368;53.406;6.214;2023-01-30T04:49:01;6.40;99.90
62339;DHT22;48368;53.406;6.214;2023-01-30T04:51:27;6.40;99.90
62339;DHT22;48368;53.406;6.214;2023-01-30T04:53:53;6.40;99.90
62339;DHT22;48368;53.406;6.214;2023-01-30T04:56:19;6.40;99.90
62339;DHT22;48368;53.406;6.214;2023-01-30T04:58:47;6.40;99.90
62339;DHT22;48368;53.406;6.214;2023-01-30T05:01:23;6.40;99.90
62339;DHT22;48368;53.406;6.214;2023-01-30T05:03:50;6.40;99.90
62339;DHT22;48368;53.406;6.214;2023-01-30T05:06:16;6.30;99.90
62339;DHT22;48368;53.406;6.214;2023-01-30T05:08:42;6.30;99.90
62339;DHT22;48368;53.406;6.214;2023-01-30T05:11:07;6.20;99.90
62339;DHT22;48368;53.406;6.214;2023-01-30T05:13:33;6.20;99.90
62339;DHT22;48368;53.406;6.214;2023-01-30T05:15:59;6.20;99.90
62339;DHT22;48368;53.406;6.214;2023-01-30T05:18:24;6.30;99.90
62339;DHT22;48368;53.406;6.214;2023-01-30T05:20:50;6.30;99.90
62339;DHT22;48368;53.406;6.214;2023-01-30T05:23:15;6.30;99.90
62339;DHT22;48368;53.406;6.214;2023-01-30T05:25:41;6.40;99.90
62339;DHT22;48368;53.406;6.214;2023-01-30T05:28:07;6.40;99.90
62339;DHT22;48368;53.406;6.214;2023-01-30T05:30:32;6.40;99.90
62339;DHT22;48368;53.406;6.214;2023-01-30T05:32:58;6.40;99.90
62339;DHT22;48368;53.406;6.214;2023-01-30T05:35:24;6.40;99.90
62339;DHT22;48368;53.406;6.214;2023-01-30T05:37:50;6.40;99.90
62339;DHT22;48368;53.406;6.214;2023-01-30T05:40:16;6.40;99.90
62339;DHT22;48368;53.406;6.214;2023-01-30T05:42:41;6.30;99.90
62339;DHT22;48368;53.406;6.214;2023-01-30T05:45:10;6.30;99.90
62339;DHT22;48368;53.406;6.214;2023-01-30T05:47:39;6.20;99.90
62339;DHT22;48368;53.406;6.214;2023-01-30T05:50:05;6.10;99.90
62339;DHT22;48368;53.406;6.214;2023-01-30T05:52:30;6.10;99.90
62339;DHT22;48368;53.406;6.214;2023-01-30T05:54:56;6.10;99.90
62339;DHT22;48368;53.406;6.214;2023-01-30T05:57:22;6.10;99.90
62339;DHT22;48368;53.406;6.214;2023-01-30T05:59:47;6.20;99.90
62339;DHT22;48368;53.406;6.214;2023-01-30T06:02:13;6.20;99.90
62339;DHT22;48368;53.406;6.214;2023-01-30T06:04:38;6.40;99.90
62339;DHT22;48368;53.406;6.214;2023-01-30T06:07:04;6.40;99.90
62339;DHT22;48368;53.406;6.214;2023-01-30T06:09:30;6.40;99.90
62339;DHT22;48368;53.406;6.214;2023-01-30T06:11:55;6.40;99.90
62339;DHT22;48368;53.406;6.214;2023-01-30T06:14:21;6.30;99.90
62339;DHT22;48368;53.406;6.214;2023-01-30T06:16:46;6.40;99.90
62339;DHT22;48368;53.406;6.214;2023-01-30T06:19:12;6.40;99.90
62339;DHT22;48368;53.406;6.214;2023-01-30T06:21:38;6.40;99.90
62339;DHT22;48368;53.406;6.214;2023-01-30T06:24:03;6.40;99.90
62339;DHT22;48368;53.406;6.214;2023-01-30T06:26:29;6.30;99.90
62339;DHT22;48368;53.406;6.214;2023-01-30T06:28:55;6.30;99.90
62339;DHT22;48368;53.406;6.214;2023-01-30T06:31:20;6.30;99.90
62339;DHT22;48368;53.406;6.214;2023-01-30T06:33:46;6.30;99.90
62339;DHT22;48368;53.406;6.214;2023-01-30T06:36:13;6.30;99.90
62339;DHT22;48368;53.406;6.214;2023-01-30T06:38:39;6.30;99.90
62339;DHT22;48368;53.406;6.214;2023-01-30T06:41:08;6.30;99.90
62339;DHT22;48368;53.406;6.214;2023-01-30T06:43:41;6.30;99.90
62339;DHT22;48368;53.406;6.214;2023-01-30T06:46:10;6.30;99.90
62339;DHT22;48368;53.406;6.214;2023-01-30T06:48:35;6.30;99.90
62339;DHT22;48368;53.406;6.214;2023-01-30T06:51:01;6.20;99.90
62339;DHT22;48368;53.406;6.214;2023-01-30T06:53:33;6.20;99.90
62339;DHT22;48368;53.406;6.214;2023-01-30T06:55:59;6.20;99.90
62339;DHT22;48368;53.406;6.214;2023-01-30T06:58:25;6.20;99.90
62339;DHT22;48368;53.406;6.214;2023-01-30T07:00:51;6.20;99.90
62339;DHT22;48368;53.406;6.214;2023-01-30T07:03:17;6.20;99.90
62339;DHT22;48368;53.406;6.214;2023-01-30T07:05:45;6.30;99.90
62339;DHT22;48368;53.406;6.214;2023-01-30T07:08:11;6.30;99.90
62339;DHT22;48368;53.406;6.214;2023-01-30T07:10:37;6.30;99.90
62339;DHT22;48368;53.406;6.214;2023-01-30T07:13:03;6.30;99.90
62339;DHT22;48368;53.406;6.214;2023-01-30T07:15:30;6.30;99.90
62339;DHT22;48368;53.406;6.214;2023-01-30T07:17:56;6.30;99.90
62339;DHT22;48368;53.406;6.214;2023-01-30T07:20:22;6.30;99.90
62339;DHT22;48368;53.406;6.214;2023-01-30T07:22:53;6.30;99.90
62339;DHT22;48368;53.406;6.214;2023-01-30T07:25:20;6.30;99.90
62339;DHT22;48368;53.406;6.214;2023-01-30T07:27:55;6.30;99.90
62339;DHT22;48368;53.406;6.214;2023-01-30T07:30:21;6.30;99.90
62339;DHT22;48368;53.406;6.214;2023-01-30T07:32:51;6.30;99.90
62339;DHT22;48368;53.406;6.214;2023-01-30T07:35:17;6.30;99.90
62339;DHT22;48368;53.406;6.214;2023-01-30T07:37:47;6.40;99.90
62339;DHT22;48368;53.406;6.214;2023-01-30T07:40:13;6.40;99.90
62339;DHT22;48368;53.406;6.214;2023-01-30T07:42:39;6.40;99.90
62339;DHT22;48368;53.406;6.214;2023-01-30T07:45:06;6.40;99.90
62339;DHT22;48368;53.406;6.214;2023-01-30T07:47:32;6.40;99.90
62339;DHT22;48368;53.406;6.214;2023-01-30T07:49:58;6.40;99.90
62339;DHT22;48368;53.406;6.214;2023-01-30T07:52:23;6.40;99.90
62339;DHT22;48368;53.406;6.214;2023-01-30T07:54:49;6.40;99.90
62339;DHT22;48368;53.406;6.214;2023-01-30T07:57:14;6.40;99.90
62339;DHT22;48368;53.406;6.214;2023-01-30T07:59:40;6.40;99.90
62339;DHT22;48368;53.406;6.214;2023-01-30T08:02:07;6.40;99.90
62339;DHT22;48368;53.406;6.214;2023-01-30T08:04:33;6.50;99.90
62339;DHT22;48368;53.406;6.214;2023-01-30T08:06:59;6.50;99.90
62339;DHT22;48368;53.406;6.214;2023-01-30T08:09:24;6.50;99.90
62339;DHT22;48368;53.406;6.214;2023-01-30T08:11:50;6.50;99.90
62339;DHT22;48368;53.406;6.214;2023-01-30T08:14:16;6.50;99.90
62339;DHT22;48368;53.406;6.214;2023-01-30T08:16:41;6.50;99.90
62339;DHT22;48368;53.406;6.214;2023-01-30T08:19:07;6.50;99.90
62339;DHT22;48368;53.406;6.214;2023-01-30T08:21:32;6.50;99.90
62339;DHT22;48368;53.406;6.214;2023-01-30T08:23:58;6.50;99.90
62339;DHT22;48368;53.406;6.214;2023-01-30T08:26:24;6.50;99.90
62339;DHT22;48368;53.406;6.214;2023-01-30T08:28:49;6.40;99.90
62339;DHT22;48368;53.406;6.214;2023-01-30T08:31:15;6.50;99.90
62339;DHT22;48368;53.406;6.214;2023-01-30T08:33:41;6.50;99.90
62339;DHT22;48368;53.406;6.214;2023-01-30T08:36:07;6.50;99.90
62339;DHT22;48368;53.406;6.214;2023-01-30T08:38:36;6.50;99.90
62339;DHT22;48368;53.406;6.214;2023-01-30T08:41:04;6.50;99.90
62339;DHT22;48368;53.406;6.214;2023-01-30T08:43:31;6.50;99.90
62339;DHT22;48368;53.406;6.214;2023-01-30T08:45:56;6.50;99.90
62339;DHT22;48368;53.406;6.214;2023-01-30T08:48:22;6.50;99.90
62339;DHT22;48368;53.406;6.214;2023-01-30T08:50:52;6.50;99.90
62339;DHT22;48368;53.406;6.214;2023-01-30T08:53:18;6.60;99.90
62339;DHT22;48368;53.406;6.214;2023-01-30T08:55:44;6.60;99.90
62339;DHT22;48368;53.406;6.214;2023-01-30T08:58:10;6.70;99.90
62339;DHT22;48368;53.406;6.214;2023-01-30T09:00:36;6.70;99.90
62339;DHT22;48368;53.406;6.214;2023-01-30T09:03:03;6.70;99.90
62339;DHT22;48368;53.406;6.214;2023-01-30T09:05:29;6.70;99.90
62339;DHT22;48368;53.406;6.214;2023-01-30T09:07:55;6.70;99.90
62339;DHT22;48368;53.406;6.214;2023-01-30T09:10:21;6.70;99.90
62339;DHT22;48368;53.406;6.214;2023-01-30T09:12:48;6.60;99.90
62339;DHT22;48368;53.406;6.214;2023-01-30T09:15:14;6.70;99.90
62339;DHT22;48368;53.406;6.214;2023-01-30T09:17:40;6.70;99.90
62339;DHT22;48368;53.406;6.214;2023-01-30T09:20:08;6.70;99.90
62339;DHT22;48368;53.406;6.214;2023-01-30T09:22:34;6.70;99.90
62339;DHT22;48368;53.406;6.214;2023-01-30T09:24:59;6.80;99.90
62339;DHT22;48368;53.406;6.214;2023-01-30T09:27:25;6.80;99.90
62339;DHT22;48368;53.406;6.214;2023-01-30T09:29:51;6.90;99.90
62339;DHT22;48368;53.406;6.214;2023-01-30T09:32:16;6.90;99.90
62339;DHT22;48368;53.406;6.214;2023-01-30T09:34:42;6.90;99.90
62339;DHT22;48368;53.406;6.214;2023-01-30T09:37:07;6.90;99.90
62339;DHT22;48368;53.406;6.214;2023-01-30T09:39:33;6.90;99.90
62339;DHT22;48368;53.406;6.214;2023-01-30T09:47:27;7.10;99.90
62339;DHT22;48368;53.406;6.214;2023-01-30T09:50:22;7.10;99.90
62339;DHT22;48368;53.406;6.214;2023-01-30T09:55:32;7.20;99.90
62339;DHT22;48368;53.406;6.214;2023-01-30T09:58:01;7.10;99.90
62339;DHT22;48368;53.406;6.214;2023-01-30T10:00:34;7.20;99.90
62339;DHT22;48368;53.406;6.214;2023-01-30T10:03:19;7.30;99.90
62339;DHT22;48368;53.406;6.214;2023-01-30T10:05:59;7.50;99.90
62339;DHT22;48368;53.406;6.214;2023-01-30T10:11:35;7.00;99.90
62339;DHT22;48368;53.406;6.214;2023-01-30T10:27:48;6.10;99.90
62339;DHT22;48368;53.406;6.214;2023-01-30T10:30:15;6.10;99.90
62339;DHT22;48368;53.406;6.214;2023-01-30T10:32:47;6.30;99.90
62339;DHT22;48368;53.406;6.214;2023-01-30T10:35:18;6.40;99.90
62339;DHT22;48368;53.406;6.214;2023-01-30T10:40:57;6.50;99.90
62339;DHT22;48368;53.406;6.214;2023-01-30T10:43:43;6.60;99.90
62339;DHT22;48368;53.406;6.214;2023-01-30T10:49:16;6.70;99.90
62339;DHT22;48368;53.406;6.214;2023-01-30T11:00:38;7.10;99.90
62339;DHT22;48368;53.406;6.214;2023-01-30T11:03:33;7.20;99.90
62339;DHT22;48368;53.406;6.214;2023-01-30T11:06:04;7.30;99.90
62339;DHT22;48368;53.406;6.214;2023-01-30T11:08:33;7.30;99.90
62339;DHT22;48368;53.406;6.214;2023-01-30T11:11:00;7.30;99.90
62339;DHT22;48368;53.406;6.214;2023-01-30T11:13:32;7.30;99.90
62339;DHT22;48368;53.406;6.214;2023-01-30T11:16:05;7.40;99.90
62339;DHT22;48368;53.406;6.214;2023-01-30T11:18:32;7.50;99.90
62339;DHT22;48368;53.406;6.214;2023-01-30T11:21:16;7.60;99.90
62339;DHT22;48368;53.406;6.214;2023-01-30T11:23:42;7.60;99.90
62339;DHT22;48368;53.406;6.214;2023-01-30T11:26:33;7.60;99.90
62339;DHT22;48368;53.406;6.214;2023-01-30T11:29:32;7.70;99.90
62339;DHT22;48368;53.406;6.214;2023-01-30T11:32:25;7.80;99.90
62339;DHT22;48368;53.406;6.214;2023-01-30T11:37:34;7.80;99.90
62339;DHT22;48368;53.406;6.214;2023-01-30T11:42:43;7.70;99.90
62339;DHT22;48368;53.406;6.214;2023-01-30T11:45:10;7.60;99.90
62339;DHT22;48368;53.406;6.214;2023-01-30T11:47:36;7.60;99.90
62339;DHT22;48368;53.406;6.214;2023-01-30T11:50:04;7.60;99.90
62339;DHT22;48368;53.406;6.214;2023-01-30T11:52:35;7.60;99.90
62339;DHT22;48368;53.406;6.214;2023-01-30T11:55:14;7.70;99.90
62339;DHT22;48368;53.406;6.214;2023-01-30T11:57:44;7.60;99.90
62339;DHT22;48368;53.406;6.214;2023-01-30T12:00:38;7.60;99.90
62339;DHT22;48368;53.406;6.214;2023-01-30T12:03:10;7.60;99.90
62339;DHT22;48368;53.406;6.214;2023-01-30T12:05:37;7.70;99.90
62339;DHT22;48368;53.406;6.214;2023-01-30T12:08:32;7.70;99.90
62339;DHT22;48368;53.406;6.214;2023-01-30T12:11:00;7.70;99.90
62339;DHT22;48368;53.406;6.214;2023-01-30T12:13:37;7.60;99.90
62339;DHT22;48368;53.406;6.214;2023-01-30T12:18:39;7.70;99.90
62339;DHT22;48368;53.406;6.214;2023-01-30T12:21:10;7.70;99.90
62339;DHT22;48368;53.406;6.214;2023-01-30T12:26:17;7.70;99.90
62339;DHT22;48368;53.406;6.214;2023-01-30T12:31:53;7.70;99.90
62339;DHT22;48368;53.406;6.214;2023-01-30T12:34:24;7.70;99.90
62339;DHT22;48368;53.406;6.214;2023-01-30T12:45:28;7.80;99.90
62339;DHT22;48368;53.406;6.214;2023-01-30T12:53:18;7.80;99.90
62339;DHT22;48368;53.406;6.214;2023-01-30T12:58:50;7.80;99.90
62339;DHT22;48368;53.406;6.214;2023-01-30T13:04:19;7.70;99.90
62339;DHT22;48368;53.406;6.214;2023-01-30T13:12:48;7.70;99.90
62339;DHT22;48368;53.406;6.214;2023-01-30T13:15:26;7.70;99.90
62339;DHT22;48368;53.406;6.214;2023-01-30T13:23:16;7.70;99.90
62339;DHT22;48368;53.406;6.214;2023-01-30T13:25:56;7.70;99.90
62339;DHT22;48368;53.406;6.214;2023-01-30T13:28:32;7.70;99.90
62339;DHT22;48368;53.406;6.214;2023-01-30T13:30:59;7.70;99.90
62339;DHT22;48368;53.406;6.214;2023-01-30T13:33:34;7.60;99.90
62339;DHT22;48368;53.406;6.214;2023-01-30T13:36:19;7.70;99.90
62339;DHT22;48368;53.406;6.214;2023-01-30T13:39:00;7.60;99.90
62339;DHT22;48368;53.406;6.214;2023-01-30T13:41:32;7.80;99.90
62339;DHT22;48368;53.406;6.214;2023-01-30T13:44:02;7.80;99.90
62339;DHT22;48368;53.406;6.214;2023-01-30T13:46:31;7.80;99.90
62339;DHT22;48368;53.406;6.214;2023-01-30T13:51:48;7.80;99.90
62339;DHT22;48368;53.406;6.214;2023-01-30T13:54:38;7.80;99.90
62339;DHT22;48368;53.406;6.214;2023-01-30T14:02:29;7.80;99.90
62339;DHT22;48368;53.406;6.214;2023-01-30T14:04:56;7.80;99.90
62339;DHT22;48368;53.406;6.214;2023-01-30T14:07:42;7.80;99.90
62339;DHT22;48368;53.406;6.214;2023-01-30T14:12:46;7.80;99.90
62339;DHT22;48368;53.406;6.214;2023-01-30T14:18:05;7.80;99.90
62339;DHT22;48368;53.406;6.214;2023-01-30T14:20:48;7.80;99.90
62339;DHT22;48368;53.406;6.214;2023-01-30T14:23:31;7.80;99.90
62339;DHT22;48368;53.406;6.214;2023-01-30T14:25:57;7.80;99.90
62339;DHT22;48368;53.406;6.214;2023-01-30T14:30:56;7.80;99.90
62339;DHT22;48368;53.406;6.214;2023-01-30T14:38:36;7.80;99.90
62339;DHT22;48368;53.406;6.214;2023-01-30T14:51:22;6.90;99.90
62339;DHT22;48368;53.406;6.214;2023-01-30T14:59:30;6.70;99.90
62339;DHT22;48368;53.406;6.214;2023-01-30T15:04:53;6.80;99.90
62339;DHT22;48368;53.406;6.214;2023-01-30T15:10:05;6.80;99.90
62339;DHT22;48368;53.406;6.214;2023-01-30T15:25:15;7.00;99.90
62339;DHT22;48368;53.406;6.214;2023-01-30T15:27:52;7.00;99.90
62339;DHT22;48368;53.406;6.214;2023-01-30T15:31:00;7.00;99.90
62339;DHT22;48368;53.406;6.214;2023-01-30T15:33:28;7.00;99.90
62339;DHT22;48368;53.406;6.214;2023-01-30T15:35:54;7.00;99.90
62339;DHT22;48368;53.406;6.214;2023-01-30T15:38:30;7.00;99.90
62339;DHT22;48368;53.406;6.214;2023-01-30T15:41:05;6.90;99.90
62339;DHT22;48368;53.406;6.214;2023-01-30T15:44:03;6.90;99.90
62339;DHT22;48368;53.406;6.214;2023-01-30T15:51:51;6.90;99.90
62339;DHT22;48368;53.406;6.214;2023-01-30T15:54:19;6.90;99.90
62339;DHT22;48368;53.406;6.214;2023-01-30T15:56:47;6.90;99.90
62339;DHT22;48368;53.406;6.214;2023-01-30T15:59:29;7.00;99.90
62339;DHT22;48368;53.406;6.214;2023-01-30T16:01:59;6.90;99.90
62339;DHT22;48368;53.406;6.214;2023-01-30T16:04:26;6.90;99.90
62339;DHT22;48368;53.406;6.214;2023-01-30T16:06:52;6.90;99.90
62339;DHT22;48368;53.406;6.214;2023-01-30T16:09:20;6.80;99.90
62339;DHT22;48368;53.406;6.214;2023-01-30T16:11:47;6.80;99.90
62339;DHT22;48368;53.406;6.214;2023-01-30T16:14:15;6.80;99.90
62339;DHT22;48368;53.406;6.214;2023-01-30T16:16:57;6.80;99.90
62339;DHT22;48368;53.406;6.214;2023-01-30T16:19:28;6.80;99.90
62339;DHT22;48368;53.406;6.214;2023-01-30T16:21:57;6.80;99.90
62339;DHT22;48368;53.406;6.214;2023-01-30T16:24:29;6.80;99.90
62339;DHT22;48368;53.406;6.214;2023-01-30T16:26:59;6.70;99.90
62339;DHT22;48368;53.406;6.214;2023-01-30T16:29:28;6.70;99.90
62339;DHT22;48368;53.406;6.214;2023-01-30T16:31:55;6.70;99.90
62339;DHT22;48368;53.406;6.214;2023-01-30T16:37:25;6.60;99.90
62339;DHT22;48368;53.406;6.214;2023-01-30T16:40:13;6.70;99.90
62339;DHT22;48368;53.406;6.214;2023-01-30T16:42:39;6.70;99.90
62339;DHT22;48368;53.406;6.214;2023-01-30T16:47:37;6.70;99.90
62339;DHT22;48368;53.406;6.214;2023-01-30T16:50:04;6.60;99.90
62339;DHT22;48368;53.406;6.214;2023-01-30T16:52:37;6.60;99.90
62339;DHT22;48368;53.406;6.214;2023-01-30T16:55:18;6.50;99.90
62339;DHT22;48368;53.406;6.214;2023-01-30T16:57:51;6.50;99.90
62339;DHT22;48368;53.406;6.214;2023-01-30T17:00:27;6.40;99.90
62339;DHT22;48368;53.406;6.214;2023-01-30T17:02:59;6.50;99.90
62339;DHT22;48368;53.406;6.214;2023-01-30T17:05:35;6.50;99.90
62339;DHT22;48368;53.406;6.214;2023-01-30T17:08:02;6.60;99.90
62339;DHT22;48368;53.406;6.214;2023-01-30T17:18:50;6.60;99.90
62339;DHT22;48368;53.406;6.214;2023-01-30T17:21:17;6.60;99.90
62339;DHT22;48368;53.406;6.214;2023-01-30T17:23:46;6.60;99.90
62339;DHT22;48368;53.406;6.214;2023-01-30T17:26:16;6.70;99.90
62339;DHT22;48368;53.406;6.214;2023-01-30T17:28:42;6.70;99.90
62339;DHT22;48368;53.406;6.214;2023-01-30T17:31:12;6.60;99.90
62339;DHT22;48368;53.406;6.214;2023-01-30T17:33:38;6.60;99.90
62339;DHT22;48368;53.406;6.214;2023-01-30T17:36:05;6.50;99.90
62339;DHT22;48368;53.406;6.214;2023-01-30T17:38:32;6.50;99.90
62339;DHT22;48368;53.406;6.214;2023-01-30T17:40:57;6.50;99.90
62339;DHT22;48368;53.406;6.214;2023-01-30T17:43:23;6.60;99.90
62339;DHT22;48368;53.406;6.214;2023-01-30T17:45:49;6.60;99.90
62339;DHT22;48368;53.406;6.214;2023-01-30T17:48:15;6.60;99.90
62339;DHT22;48368;53.406;6.214;2023-01-30T17:50:40;6.60;99.90
62339;DHT22;48368;53.406;6.214;2023-01-30T17:53:06;6.60;99.90
62339;DHT22;48368;53.406;6.214;2023-01-30T17:55:36;6.60;99.90
62339;DHT22;48368;53.406;6.214;2023-01-30T17:58:02;6.60;99.90
62339;DHT22;48368;53.406;6.214;2023-01-30T18:00:28;6.60;99.90
62339;DHT22;48368;53.406;6.214;2023-01-30T18:02:53;6.50;99.90
62339;DHT22;48368;53.406;6.214;2023-01-30T18:05:26;6.50;99.90
62339;DHT22;48368;53.406;6.214;2023-01-30T18:07:52;6.50;99.90
62339;DHT22;48368;53.406;6.214;2023-01-30T18:10:18;6.40;99.90
62339;DHT22;48368;53.406;6.214;2023-01-30T18:12:44;6.50;99.90
62339;DHT22;48368;53.406;6.214;2023-01-30T18:15:14;6.40;99.90
62339;DHT22;48368;53.406;6.214;2023-01-30T18:17:43;6.40;99.90
62339;DHT22;48368;53.406;6.214;2023-01-30T18:20:11;6.40;99.90
62339;DHT22;48368;53.406;6.214;2023-01-30T18:22:37;6.40;99.90
62339;DHT22;48368;53.406;6.214;2023-01-30T18:25:03;6.40;99.90
62339;DHT22;48368;53.406;6.214;2023-01-30T18:27:28;6.40;99.90
62339;DHT22;48368;53.406;6.214;2023-01-30T18:29:57;6.40;99.90
62339;DHT22;48368;53.406;6.214;2023-01-30T18:32:22;6.40;99.90
62339;DHT22;48368;53.406;6.214;2023-01-30T18:34:48;6.40;99.90
62339;DHT22;48368;53.406;6.214;2023-01-30T18:37:14;6.40;99.90
62339;DHT22;48368;53.406;6.214;2023-01-30T18:39:39;6.40;99.90
62339;DHT22;48368;53.406;6.214;2023-01-30T18:42:05;6.40;99.90
62339;DHT22;48368;53.406;6.214;2023-01-30T18:44:32;6.40;99.90
62339;DHT22;48368;53.406;6.214;2023-01-30T18:46:58;6.30;99.90
62339;DHT22;48368;53.406;6.214;2023-01-30T18:49:24;6.40;99.90
62339;DHT22;48368;53.406;6.214;2023-01-30T18:51:50;6.40;99.90
62339;DHT22;48368;53.406;6.214;2023-01-30T18:54:16;6.40;99.90
62339;DHT22;48368;53.406;6.214;2023-01-30T18:56:41;6.40;99.90
62339;DHT22;48368;53.406;6.214;2023-01-30T18:59:08;6.50;99.90
62339;DHT22;48368;53.406;6.214;2023-01-30T19:01:36;6.50;99.90